sensor_id;sensor_type;location;lat;lon;timestamp;P1;durP1;ratioP1;P2;durP2;ratioP2
32734;SDS011;19112;51.076;3.706;2023-02-01T00:00:25;32.15;;;7.78;;
32734;SDS011;19112;51.076;3.706;2023-02-01T00:02:51;36.08;;;8.57;;
32734;SDS011;19112;51.076;3.706;2023-02-01T00:05:17;33.42;;;8.52;;
32734;SDS011;19112;51.076;3.706;2023-02-01T00:07:44;31.60;;;8.25;;
32734;SDS011;19112;51.076;3.706;2023-02-01T00:10:13;35.45;;;7.68;;
32734;SDS011;19112;51.076;3.706;2023-02-01T00:12:39;27.40;;;7.22;;
32734;SDS011;19112;51.076;3.706;2023-02-01T00:15:05;31.52;;;8.07;;
32734;SDS011;19112;51.076;3.706;2023-02-01T00:17:31;33.42;;;7.00;;
32734;SDS011;19112;51.076;3.706;2023-02-01T00:19:57;38.60;;;7.85;;
32734;SDS011;19112;51.076;3.706;2023-02-01T00:22:23;35.95;;;7.07;;
32734;SDS011;19112;51.076;3.706;2023-02-01T00:24:50;40.40;;;7.43;;
32734;SDS011;19112;51.076;3.706;2023-02-01T00:27:15;37.55;;;8.40;;
32734;SDS011;19112;51.076;3.706;2023-02-01T00:29:45;29.75;;;6.25;;
32734;SDS011;19112;51.076;3.706;2023-02-01T00:32:11;37.38;;;6.90;;
32734;SDS011;19112;51.076;3.706;2023-02-01T00:34:37;31.77;;;6.57;;
32734;SDS011;19112;51.076;3.706;2023-02-01T00:37:03;34.53;;;6.65;;
32734;SDS011;19112;51.076;3.706;2023-02-01T00:39:28;31.08;;;6.18;;
32734;SDS011;19112;51.076;3.706;2023-02-01T00:41:54;35.47;;;6.93;;
32734;SDS011;19112;51.076;3.706;2023-02-01T00:44:20;33.50;;;7.43;;
32734;SDS011;19112;51.076;3.706;2023-02-01T00:46:46;29.83;;;6.68;;
32734;SDS011;19112;51.076;3.706;2023-02-01T00:49:11;40.88;;;6.97;;
32734;SDS011;19112;51.076;3.706;2023-02-01T00:51:37;30.08;;;6.38;;
32734;SDS011;19112;51.076;3.706;2023-02-01T00:54:03;28.92;;;6.70;;
32734;SDS011;19112;51.076;3.706;2023-02-01T00:56:29;37.03;;;6.65;;
32734;SDS011;19112;51.076;3.706;2023-02-01T00:58:55;30.33;;;6.55;;
32734;SDS011;19112;51.076;3.706;2023-02-01T01:01:26;27.80;;;6.07;;
32734;SDS011;19112;51.076;3.706;2023-02-01T01:03:53;35.22;;;6.72;;
32734;SDS011;19112;51.076;3.706;2023-02-01T01:06:22;33.35;;;6.85;;
32734;SDS011;19112;51.076;3.706;2023-02-01T01:08:51;27.45;;;6.75;;
32734;SDS011;19112;51.076;3.706;2023-02-01T01:11:19;29.17;;;6.40;;
32734;SDS011;19112;51.076;3.706;2023-02-01T01:13:52;33.22;;;5.93;;
32734;SDS011;19112;51.076;3.706;2023-02-01T01:16:20;33.92;;;5.95;;
32734;SDS011;19112;51.076;3.706;2023-02-01T01:18:48;30.92;;;5.40;;
32734;SDS011;19112;51.076;3.706;2023-02-01T01:21:14;31.17;;;6.15;;
32734;SDS011;19112;51.076;3.706;2023-02-01T01:23:41;32.40;;;6.45;;
32734;SDS011;19112;51.076;3.706;2023-02-01T01:26:09;37.25;;;7.03;;
32734;SDS011;19112;51.076;3.706;2023-02-01T01:28:40;39.47;;;8.60;;
32734;SDS011;19112;51.076;3.706;2023-02-01T01:31:10;32.97;;;5.03;;
32734;SDS011;19112;51.076;3.706;2023-02-01T01:33:37;33.83;;;6.22;;
32734;SDS011;19112;51.076;3.706;2023-02-01T01:36:07;27.05;;;5.82;;
32734;SDS011;19112;51.076;3.706;2023-02-01T01:38:37;26.35;;;5.43;;
32734;SDS011;19112;51.076;3.706;2023-02-01T01:41:05;28.17;;;5.38;;
32734;SDS011;19112;51.076;3.706;2023-02-01T01:43:45;39.83;;;6.05;;
32734;SDS011;19112;51.076;3.706;2023-02-01T01:46:20;32.95;;;6.05;;
32734;SDS011;19112;51.076;3.706;2023-02-01T01:51:44;30.45;;;4.88;;
32734;SDS011;19112;51.076;3.706;2023-02-01T01:54:21;23.20;;;5.18;;
32734;SDS011;19112;51.076;3.706;2023-02-01T01:56:57;30.67;;;5.38;;
32734;SDS011;19112;51.076;3.706;2023-02-01T01:59:31;32.72;;;5.47;;
32734;SDS011;19112;51.076;3.706;2023-02-01T02:01:59;32.97;;;5.90;;
32734;SDS011;19112;51.076;3.706;2023-02-01T02:04:25;35.97;;;5.68;;
32734;SDS011;19112;51.076;3.706;2023-02-01T02:06:59;30.67;;;5.88;;
32734;SDS011;19112;51.076;3.706;2023-02-01T02:09:34;26.15;;;5.65;;
32734;SDS011;19112;51.076;3.706;2023-02-01T02:12:00;29.60;;;5.53;;
32734;SDS011;19112;51.076;3.706;2023-02-01T02:14:26;36.03;;;6.57;;
32734;SDS011;19112;51.076;3.706;2023-02-01T02:29:22;27.05;;;5.63;;
32734;SDS011;19112;51.076;3.706;2023-02-01T02:34:47;20.90;;;5.43;;
32734;SDS011;19112;51.076;3.706;2023-02-01T02:37:49;29.52;;;5.65;;
32734;SDS011;19112;51.076;3.706;2023-02-01T02:40:49;36.22;;;6.18;;
32734;SDS011;19112;51.076;3.706;2023-02-01T02:43:46;40.20;;;7.80;;
32734;SDS011;19112;51.076;3.706;2023-02-01T02:46:40;46.28;;;6.25;;
32734;SDS011;19112;51.076;3.706;2023-02-01T02:49:54;34.95;;;5.95;;
32734;SDS011;19112;51.076;3.706;2023-02-01T02:53:05;31.92;;;5.88;;
32734;SDS011;19112;51.076;3.706;2023-02-01T02:56:02;36.58;;;6.25;;
32734;SDS011;19112;51.076;3.706;2023-02-01T02:58:49;35.05;;;5.97;;
32734;SDS011;19112;51.076;3.706;2023-02-01T03:01:35;32.10;;;6.75;;
32734;SDS011;19112;51.076;3.706;2023-02-01T03:04:21;34.45;;;7.07;;
32734;SDS011;19112;51.076;3.706;2023-02-01T03:06:48;32.75;;;5.75;;
32734;SDS011;19112;51.076;3.706;2023-02-01T03:09:17;32.03;;;5.88;;
32734;SDS011;19112;51.076;3.706;2023-02-01T03:11:48;28.45;;;6.22;;
32734;SDS011;19112;51.076;3.706;2023-02-01T03:14:40;22.65;;;5.82;;
32734;SDS011;19112;51.076;3.706;2023-02-01T03:17:14;35.95;;;6.15;;
32734;SDS011;19112;51.076;3.706;2023-02-01T03:19:48;40.13;;;7.05;;
32734;SDS011;19112;51.076;3.706;2023-02-01T03:22:20;34.40;;;5.93;;
32734;SDS011;19112;51.076;3.706;2023-02-01T03:24:55;32.08;;;5.85;;
32734;SDS011;19112;51.076;3.706;2023-02-01T03:27:34;36.95;;;6.45;;
32734;SDS011;19112;51.076;3.706;2023-02-01T03:30:18;39.58;;;6.07;;
32734;SDS011;19112;51.076;3.706;2023-02-01T03:32:49;31.77;;;6.28;;
32734;SDS011;19112;51.076;3.706;2023-02-01T03:35:30;29.63;;;5.47;;
32734;SDS011;19112;51.076;3.706;2023-02-01T03:38:22;29.45;;;5.82;;
32734;SDS011;19112;51.076;3.706;2023-02-01T03:41:08;29.08;;;5.03;;
32734;SDS011;19112;51.076;3.706;2023-02-01T03:46:32;34.70;;;6.13;;
32734;SDS011;19112;51.076;3.706;2023-02-01T03:49:08;38.42;;;6.32;;
32734;SDS011;19112;51.076;3.706;2023-02-01T03:51:38;40.78;;;5.95;;
32734;SDS011;19112;51.076;3.706;2023-02-01T03:54:06;27.50;;;5.10;;
32734;SDS011;19112;51.076;3.706;2023-02-01T03:59:09;36.75;;;5.43;;
32734;SDS011;19112;51.076;3.706;2023-02-01T04:01:36;41.38;;;6.60;;
32734;SDS011;19112;51.076;3.706;2023-02-01T04:04:02;41.25;;;5.75;;
32734;SDS011;19112;51.076;3.706;2023-02-01T04:06:28;30.65;;;5.65;;
32734;SDS011;19112;51.076;3.706;2023-02-01T04:08:54;32.05;;;5.20;;
32734;SDS011;19112;51.076;3.706;2023-02-01T04:11:19;32.17;;;5.85;;
32734;SDS011;19112;51.076;3.706;2023-02-01T04:13:45;29.48;;;5.20;;
32734;SDS011;19112;51.076;3.706;2023-02-01T04:16:11;33.47;;;5.55;;
32734;SDS011;19112;51.076;3.706;2023-02-01T04:18:37;34.92;;;6.72;;
32734;SDS011;19112;51.076;3.706;2023-02-01T04:21:03;33.13;;;6.15;;
32734;SDS011;19112;51.076;3.706;2023-02-01T04:23:29;33.75;;;6.07;;
32734;SDS011;19112;51.076;3.706;2023-02-01T04:26:03;34.13;;;6.03;;
32734;SDS011;19112;51.076;3.706;2023-02-01T04:28:30;35.58;;;5.82;;
32734;SDS011;19112;51.076;3.706;2023-02-01T04:30:56;26.33;;;6.13;;
32734;SDS011;19112;51.076;3.706;2023-02-01T04:33:22;37.70;;;5.70;;
32734;SDS011;19112;51.076;3.706;2023-02-01T04:35:48;31.85;;;5.32;;
32734;SDS011;19112;51.076;3.706;2023-02-01T04:38:14;30.90;;;6.15;;
32734;SDS011;19112;51.076;3.706;2023-02-01T04:40:40;34.38;;;6.72;;
32734;SDS011;19112;51.076;3.706;2023-02-01T04:43:06;26.08;;;5.63;;
32734;SDS011;19112;51.076;3.706;2023-02-01T04:45:32;28.52;;;6.70;;
32734;SDS011;19112;51.076;3.706;2023-02-01T04:47:58;32.63;;;5.75;;
32734;SDS011;19112;51.076;3.706;2023-02-01T04:50:24;28.02;;;5.50;;
32734;SDS011;19112;51.076;3.706;2023-02-01T04:52:50;42.67;;;7.15;;
32734;SDS011;19112;51.076;3.706;2023-02-01T04:55:16;32.88;;;5.00;;
32734;SDS011;19112;51.076;3.706;2023-02-01T04:57:41;36.45;;;5.63;;
32734;SDS011;19112;51.076;3.706;2023-02-01T05:00:08;31.13;;;5.28;;
32734;SDS011;19112;51.076;3.706;2023-02-01T05:02:35;32.53;;;5.97;;
32734;SDS011;19112;51.076;3.706;2023-02-01T05:05:01;30.55;;;5.43;;
32734;SDS011;19112;51.076;3.706;2023-02-01T05:07:27;29.27;;;5.50;;
32734;SDS011;19112;51.076;3.706;2023-02-01T05:09:53;28.80;;;5.03;;
32734;SDS011;19112;51.076;3.706;2023-02-01T05:12:19;32.05;;;5.70;;
32734;SDS011;19112;51.076;3.706;2023-02-01T05:15:04;32.63;;;6.85;;
32734;SDS011;19112;51.076;3.706;2023-02-01T05:17:30;33.05;;;5.93;;
32734;SDS011;19112;51.076;3.706;2023-02-01T05:19:56;29.40;;;6.63;;
32734;SDS011;19112;51.076;3.706;2023-02-01T05:22:22;36.10;;;5.65;;
32734;SDS011;19112;51.076;3.706;2023-02-01T05:24:48;28.80;;;6.43;;
32734;SDS011;19112;51.076;3.706;2023-02-01T05:27:13;39.28;;;6.32;;
32734;SDS011;19112;51.076;3.706;2023-02-01T05:29:39;30.48;;;5.05;;
32734;SDS011;19112;51.076;3.706;2023-02-01T05:32:05;33.72;;;5.95;;
32734;SDS011;19112;51.076;3.706;2023-02-01T05:34:31;36.35;;;5.38;;
32734;SDS011;19112;51.076;3.706;2023-02-01T05:36:56;35.58;;;7.40;;
32734;SDS011;19112;51.076;3.706;2023-02-01T05:39:22;30.27;;;6.32;;
32734;SDS011;19112;51.076;3.706;2023-02-01T05:41:48;37.20;;;5.85;;
32734;SDS011;19112;51.076;3.706;2023-02-01T05:44:14;33.97;;;5.78;;
32734;SDS011;19112;51.076;3.706;2023-02-01T05:46:40;29.65;;;5.88;;
32734;SDS011;19112;51.076;3.706;2023-02-01T05:49:05;37.42;;;6.10;;
32734;SDS011;19112;51.076;3.706;2023-02-01T05:51:32;38.70;;;6.22;;
32734;SDS011;19112;51.076;3.706;2023-02-01T05:53:58;30.45;;;6.18;;
32734;SDS011;19112;51.076;3.706;2023-02-01T05:56:24;34.40;;;6.50;;
32734;SDS011;19112;51.076;3.706;2023-02-01T05:58:50;32.95;;;5.97;;
32734;SDS011;19112;51.076;3.706;2023-02-01T06:01:16;35.83;;;6.50;;
32734;SDS011;19112;51.076;3.706;2023-02-01T06:03:42;36.10;;;5.45;;
32734;SDS011;19112;51.076;3.706;2023-02-01T06:06:08;34.22;;;6.32;;
32734;SDS011;19112;51.076;3.706;2023-02-01T06:08:33;29.88;;;6.20;;
32734;SDS011;19112;51.076;3.706;2023-02-01T06:11:00;27.20;;;6.05;;
32734;SDS011;19112;51.076;3.706;2023-02-01T06:13:28;33.30;;;6.80;;
32734;SDS011;19112;51.076;3.706;2023-02-01T06:15:55;35.97;;;5.75;;
32734;SDS011;19112;51.076;3.706;2023-02-01T06:18:22;33.78;;;6.53;;
32734;SDS011;19112;51.076;3.706;2023-02-01T06:20:55;34.10;;;6.13;;
32734;SDS011;19112;51.076;3.706;2023-02-01T06:23:22;32.03;;;6.32;;
32734;SDS011;19112;51.076;3.706;2023-02-01T06:25:49;33.53;;;6.90;;
32734;SDS011;19112;51.076;3.706;2023-02-01T06:28:36;37.50;;;7.78;;
32734;SDS011;19112;51.076;3.706;2023-02-01T06:31:04;39.33;;;8.02;;
32734;SDS011;19112;51.076;3.706;2023-02-01T06:33:32;30.92;;;6.90;;
32734;SDS011;19112;51.076;3.706;2023-02-01T06:35:59;40.28;;;6.30;;
32734;SDS011;19112;51.076;3.706;2023-02-01T06:38:28;37.65;;;7.25;;
32734;SDS011;19112;51.076;3.706;2023-02-01T06:40:55;38.63;;;6.95;;
32734;SDS011;19112;51.076;3.706;2023-02-01T06:43:23;40.40;;;7.28;;
32734;SDS011;19112;51.076;3.706;2023-02-01T06:45:50;38.50;;;5.90;;
32734;SDS011;19112;51.076;3.706;2023-02-01T06:48:17;34.60;;;6.05;;
32734;SDS011;19112;51.076;3.706;2023-02-01T06:50:43;38.45;;;6.63;;
32734;SDS011;19112;51.076;3.706;2023-02-01T06:53:09;36.55;;;6.40;;
32734;SDS011;19112;51.076;3.706;2023-02-01T06:55:36;39.08;;;7.38;;
32734;SDS011;19112;51.076;3.706;2023-02-01T06:58:01;37.42;;;7.38;;
32734;SDS011;19112;51.076;3.706;2023-02-01T07:00:28;27.20;;;6.10;;
32734;SDS011;19112;51.076;3.706;2023-02-01T07:02:54;33.50;;;5.88;;
32734;SDS011;19112;51.076;3.706;2023-02-01T07:05:22;34.47;;;6.18;;
32734;SDS011;19112;51.076;3.706;2023-02-01T07:07:48;43.55;;;7.80;;
32734;SDS011;19112;51.076;3.706;2023-02-01T07:10:13;35.90;;;6.97;;
32734;SDS011;19112;51.076;3.706;2023-02-01T07:12:39;32.58;;;6.07;;
32734;SDS011;19112;51.076;3.706;2023-02-01T07:15:05;31.88;;;6.38;;
32734;SDS011;19112;51.076;3.706;2023-02-01T07:17:32;29.17;;;6.90;;
32734;SDS011;19112;51.076;3.706;2023-02-01T07:19:58;35.80;;;5.72;;
32734;SDS011;19112;51.076;3.706;2023-02-01T07:22:25;36.05;;;6.50;;
32734;SDS011;19112;51.076;3.706;2023-02-01T07:24:51;28.67;;;6.68;;
32734;SDS011;19112;51.076;3.706;2023-02-01T07:27:17;34.55;;;6.63;;
32734;SDS011;19112;51.076;3.706;2023-02-01T07:29:43;36.65;;;6.03;;
32734;SDS011;19112;51.076;3.706;2023-02-01T07:32:08;37.15;;;6.82;;
32734;SDS011;19112;51.076;3.706;2023-02-01T07:34:34;36.00;;;6.00;;
32734;SDS011;19112;51.076;3.706;2023-02-01T07:37:00;33.25;;;6.35;;
32734;SDS011;19112;51.076;3.706;2023-02-01T07:39:26;45.67;;;7.03;;
32734;SDS011;19112;51.076;3.706;2023-02-01T07:41:53;32.72;;;6.28;;
32734;SDS011;19112;51.076;3.706;2023-02-01T07:44:19;35.30;;;6.50;;
32734;SDS011;19112;51.076;3.706;2023-02-01T07:46:48;36.17;;;7.20;;
32734;SDS011;19112;51.076;3.706;2023-02-01T07:49:14;35.17;;;6.20;;
32734;SDS011;19112;51.076;3.706;2023-02-01T07:51:42;37.55;;;7.13;;
32734;SDS011;19112;51.076;3.706;2023-02-01T07:54:08;34.13;;;6.65;;
32734;SDS011;19112;51.076;3.706;2023-02-01T07:56:34;29.33;;;5.85;;
32734;SDS011;19112;51.076;3.706;2023-02-01T07:59:00;35.80;;;7.03;;
32734;SDS011;19112;51.076;3.706;2023-02-01T08:01:26;32.13;;;5.78;;
32734;SDS011;19112;51.076;3.706;2023-02-01T08:03:54;30.38;;;5.90;;
32734;SDS011;19112;51.076;3.706;2023-02-01T08:06:27;25.13;;;6.13;;
32734;SDS011;19112;51.076;3.706;2023-02-01T08:08:56;35.17;;;6.45;;
32734;SDS011;19112;51.076;3.706;2023-02-01T08:11:23;42.78;;;6.60;;
32734;SDS011;19112;51.076;3.706;2023-02-01T08:13:49;32.67;;;5.75;;
32734;SDS011;19112;51.076;3.706;2023-02-01T08:16:17;32.90;;;6.15;;
32734;SDS011;19112;51.076;3.706;2023-02-01T08:18:44;33.88;;;7.00;;
32734;SDS011;19112;51.076;3.706;2023-02-01T08:21:15;36.03;;;7.10;;
32734;SDS011;19112;51.076;3.706;2023-02-01T08:23:44;27.92;;;5.65;;
32734;SDS011;19112;51.076;3.706;2023-02-01T08:26:12;34.60;;;7.10;;
32734;SDS011;19112;51.076;3.706;2023-02-01T08:28:50;36.15;;;7.35;;
32734;SDS011;19112;51.076;3.706;2023-02-01T08:31:28;36.50;;;5.78;;
32734;SDS011;19112;51.076;3.706;2023-02-01T08:33:56;42.55;;;6.97;;
32734;SDS011;19112;51.076;3.706;2023-02-01T08:36:26;37.28;;;6.30;;
32734;SDS011;19112;51.076;3.706;2023-02-01T08:38:53;31.20;;;5.43;;
32734;SDS011;19112;51.076;3.706;2023-02-01T08:41:20;28.00;;;5.35;;
32734;SDS011;19112;51.076;3.706;2023-02-01T08:43:50;32.35;;;5.38;;
32734;SDS011;19112;51.076;3.706;2023-02-01T08:46:16;32.35;;;5.07;;
32734;SDS011;19112;51.076;3.706;2023-02-01T08:48:42;33.78;;;6.20;;
32734;SDS011;19112;51.076;3.706;2023-02-01T08:51:10;34.45;;;5.70;;
32734;SDS011;19112;51.076;3.706;2023-02-01T08:53:38;36.72;;;6.65;;
32734;SDS011;19112;51.076;3.706;2023-02-01T08:56:08;36.92;;;6.18;;
32734;SDS011;19112;51.076;3.706;2023-02-01T08:58:36;39.72;;;9.00;;
32734;SDS011;19112;51.076;3.706;2023-02-01T09:01:03;33.42;;;5.57;;
32734;SDS011;19112;51.076;3.706;2023-02-01T09:03:31;29.42;;;5.05;;
32734;SDS011;19112;51.076;3.706;2023-02-01T09:06:05;32.13;;;6.28;;
32734;SDS011;19112;51.076;3.706;2023-02-01T09:08:34;31.08;;;4.60;;
32734;SDS011;19112;51.076;3.706;2023-02-01T09:11:00;35.17;;;5.03;;
32734;SDS011;19112;51.076;3.706;2023-02-01T09:13:29;29.30;;;5.28;;
32734;SDS011;19112;51.076;3.706;2023-02-01T09:15:55;31.20;;;5.53;;
32734;SDS011;19112;51.076;3.706;2023-02-01T09:18:21;31.67;;;5.88;;
32734;SDS011;19112;51.076;3.706;2023-02-01T09:20:47;41.28;;;6.30;;
32734;SDS011;19112;51.076;3.706;2023-02-01T09:23:13;29.08;;;6.03;;
32734;SDS011;19112;51.076;3.706;2023-02-01T09:25:39;34.75;;;5.40;;
32734;SDS011;19112;51.076;3.706;2023-02-01T09:28:05;31.48;;;5.88;;
32734;SDS011;19112;51.076;3.706;2023-02-01T09:30:32;31.50;;;5.15;;
32734;SDS011;19112;51.076;3.706;2023-02-01T09:32:58;34.97;;;5.47;;
32734;SDS011;19112;51.076;3.706;2023-02-01T09:35:24;25.05;;;5.30;;
32734;SDS011;19112;51.076;3.706;2023-02-01T09:37:52;34.00;;;5.47;;
32734;SDS011;19112;51.076;3.706;2023-02-01T09:40:18;31.70;;;5.43;;
32734;SDS011;19112;51.076;3.706;2023-02-01T09:46:03;26.65;;;5.03;;
32734;SDS011;19112;51.076;3.706;2023-02-01T09:48:48;33.40;;;5.70;;
32734;SDS011;19112;51.076;3.706;2023-02-01T09:51:20;28.58;;;4.78;;
32734;SDS011;19112;51.076;3.706;2023-02-01T09:53:59;22.63;;;5.07;;
32734;SDS011;19112;51.076;3.706;2023-02-01T09:57:07;24.45;;;4.90;;
32734;SDS011;19112;51.076;3.706;2023-02-01T09:59:52;34.55;;;5.18;;
32734;SDS011;19112;51.076;3.706;2023-02-01T10:02:32;31.15;;;5.30;;
32734;SDS011;19112;51.076;3.706;2023-02-01T10:05:03;29.70;;;5.05;;
32734;SDS011;19112;51.076;3.706;2023-02-01T10:07:42;25.05;;;5.70;;
32734;SDS011;19112;51.076;3.706;2023-02-01T10:10:47;25.42;;;4.80;;
32734;SDS011;19112;51.076;3.706;2023-02-01T10:13:22;26.30;;;5.72;;
32734;SDS011;19112;51.076;3.706;2023-02-01T10:21:54;28.25;;;5.60;;
32734;SDS011;19112;51.076;3.706;2023-02-01T10:27:12;23.23;;;4.57;;
32734;SDS011;19112;51.076;3.706;2023-02-01T10:29:59;31.20;;;5.00;;
32734;SDS011;19112;51.076;3.706;2023-02-01T10:32:39;21.85;;;4.15;;
32734;SDS011;19112;51.076;3.706;2023-02-01T10:35:26;21.77;;;3.70;;
32734;SDS011;19112;51.076;3.706;2023-02-01T10:37:59;28.73;;;3.35;;
32734;SDS011;19112;51.076;3.706;2023-02-01T10:40:27;20.08;;;3.90;;
32734;SDS011;19112;51.076;3.706;2023-02-01T10:42:59;22.75;;;3.60;;
32734;SDS011;19112;51.076;3.706;2023-02-01T10:45:27;21.67;;;3.65;;
32734;SDS011;19112;51.076;3.706;2023-02-01T10:47:58;28.88;;;5.00;;
32734;SDS011;19112;51.076;3.706;2023-02-01T10:56:09;24.45;;;3.90;;
32734;SDS011;19112;51.076;3.706;2023-02-01T10:58:44;21.70;;;3.47;;
32734;SDS011;19112;51.076;3.706;2023-02-01T11:01:30;18.35;;;3.20;;
32734;SDS011;19112;51.076;3.706;2023-02-01T11:04:03;23.35;;;3.20;;
32734;SDS011;19112;51.076;3.706;2023-02-01T11:11:56;24.13;;;3.33;;
32734;SDS011;19112;51.076;3.706;2023-02-01T11:16:51;20.63;;;3.38;;
32734;SDS011;19112;51.076;3.706;2023-02-01T11:19:18;20.42;;;3.20;;
32734;SDS011;19112;51.076;3.706;2023-02-01T11:21:45;19.92;;;4.40;;
32734;SDS011;19112;51.076;3.706;2023-02-01T11:24:31;18.60;;;4.03;;
32734;SDS011;19112;51.076;3.706;2023-02-01T11:27:04;20.38;;;4.63;;
32734;SDS011;19112;51.076;3.706;2023-02-01T11:29:39;19.10;;;3.20;;
32734;SDS011;19112;51.076;3.706;2023-02-01T11:32:08;20.55;;;3.33;;
32734;SDS011;19112;51.076;3.706;2023-02-01T11:34:38;18.70;;;3.20;;
32734;SDS011;19112;51.076;3.706;2023-02-01T11:37:24;20.80;;;3.67;;
32734;SDS011;19112;51.076;3.706;2023-02-01T11:40:00;22.83;;;3.92;;
32734;SDS011;19112;51.076;3.706;2023-02-01T11:42:57;16.58;;;3.40;;
32734;SDS011;19112;51.076;3.706;2023-02-01T11:45:33;15.52;;;3.45;;
32734;SDS011;19112;51.076;3.706;2023-02-01T11:48:02;22.15;;;3.95;;
32734;SDS011;19112;51.076;3.706;2023-02-01T11:56:57;18.17;;;3.20;;
32734;SDS011;19112;51.076;3.706;2023-02-01T11:59:49;21.48;;;3.30;;
32734;SDS011;19112;51.076;3.706;2023-02-01T12:02:45;17.50;;;4.45;;
32734;SDS011;19112;51.076;3.706;2023-02-01T12:09:10;16.02;;;3.20;;
32734;SDS011;19112;51.076;3.706;2023-02-01T12:12:03;30.02;;;5.35;;
32734;SDS011;19112;51.076;3.706;2023-02-01T12:18:06;22.33;;;4.75;;
32734;SDS011;19112;51.076;3.706;2023-02-01T12:23:46;20.77;;;3.78;;
32734;SDS011;19112;51.076;3.706;2023-02-01T12:35:43;23.27;;;3.42;;
32734;SDS011;19112;51.076;3.706;2023-02-01T12:41:49;18.20;;;3.53;;
32734;SDS011;19112;51.076;3.706;2023-02-01T12:52:24;21.88;;;2.97;;
32734;SDS011;19112;51.076;3.706;2023-02-01T12:55:06;16.95;;;3.83;;
32734;SDS011;19112;51.076;3.706;2023-02-01T12:58:01;20.70;;;3.70;;
32734;SDS011;19112;51.076;3.706;2023-02-01T13:00:50;14.65;;;2.72;;
32734;SDS011;19112;51.076;3.706;2023-02-01T13:06:41;19.25;;;3.00;;
32734;SDS011;19112;51.076;3.706;2023-02-01T13:09:41;23.60;;;3.07;;
32734;SDS011;19112;51.076;3.706;2023-02-01T13:12:54;17.63;;;3.00;;
32734;SDS011;19112;51.076;3.706;2023-02-01T13:15:38;15.75;;;2.63;;
32734;SDS011;19112;51.076;3.706;2023-02-01T13:18:11;17.60;;;3.22;;
32734;SDS011;19112;51.076;3.706;2023-02-01T13:23:43;23.17;;;3.40;;
32734;SDS011;19112;51.076;3.706;2023-02-01T13:26:13;17.63;;;2.78;;
32734;SDS011;19112;51.076;3.706;2023-02-01T13:43:39;20.25;;;3.38;;
32734;SDS011;19112;51.076;3.706;2023-02-01T13:46:15;17.02;;;3.20;;
32734;SDS011;19112;51.076;3.706;2023-02-01T13:48:55;19.02;;;3.40;;
32734;SDS011;19112;51.076;3.706;2023-02-01T13:57:03;19.95;;;3.42;;
32734;SDS011;19112;51.076;3.706;2023-02-01T13:59:49;18.73;;;3.38;;
32734;SDS011;19112;51.076;3.706;2023-02-01T14:05:54;25.33;;;3.35;;
32734;SDS011;19112;51.076;3.706;2023-02-01T14:08:09;22.55;;;3.53;;
32734;SDS011;19112;51.076;3.706;2023-02-01T14:13:48;25.80;;;3.55;;
32734;SDS011;19112;51.076;3.706;2023-02-01T14:16:12;22.40;;;3.40;;
32734;SDS011;19112;51.076;3.706;2023-02-01T14:24:43;22.55;;;3.85;;
32734;SDS011;19112;51.076;3.706;2023-02-01T14:26:55;22.25;;;4.55;;
32734;SDS011;19112;51.076;3.706;2023-02-01T14:29:50;24.58;;;3.45;;
32734;SDS011;19112;51.076;3.706;2023-02-01T14:32:23;17.90;;;3.50;;
32734;SDS011;19112;51.076;3.706;2023-02-01T14:34:52;25.92;;;4.38;;
32734;SDS011;19112;51.076;3.706;2023-02-01T14:37:25;23.30;;;5.93;;
32734;SDS011;19112;51.076;3.706;2023-02-01T14:42:44;24.58;;;4.82;;
32734;SDS011;19112;51.076;3.706;2023-02-01T14:47:53;26.48;;;4.07;;
32734;SDS011;19112;51.076;3.706;2023-02-01T14:53:04;26.73;;;4.20;;
32734;SDS011;19112;51.076;3.706;2023-02-01T15:01:37;28.92;;;6.68;;
32734;SDS011;19112;51.076;3.706;2023-02-01T15:04:13;29.73;;;4.10;;
32734;SDS011;19112;51.076;3.706;2023-02-01T15:09:20;24.42;;;4.63;;
32734;SDS011;19112;51.076;3.706;2023-02-01T15:14:42;26.25;;;4.60;;
32734;SDS011;19112;51.076;3.706;2023-02-01T15:17:18;23.70;;;4.57;;
32734;SDS011;19112;51.076;3.706;2023-02-01T15:20:20;31.98;;;5.22;;
32734;SDS011;19112;51.076;3.706;2023-02-01T15:23:01;26.35;;;4.97;;
32734;SDS011;19112;51.076;3.706;2023-02-01T15:25:33;19.98;;;3.95;;
32734;SDS011;19112;51.076;3.706;2023-02-01T15:28:02;29.30;;;5.05;;
32734;SDS011;19112;51.076;3.706;2023-02-01T15:30:29;26.13;;;4.25;;
32734;SDS011;19112;51.076;3.706;2023-02-01T15:35:39;25.77;;;4.53;;
32734;SDS011;19112;51.076;3.706;2023-02-01T15:38:21;29.75;;;6.75;;
32734;SDS011;19112;51.076;3.706;2023-02-01T15:43:21;24.85;;;5.32;;
32734;SDS011;19112;51.076;3.706;2023-02-01T15:45:47;26.25;;;5.63;;
32734;SDS011;19112;51.076;3.706;2023-02-01T15:48:19;29.23;;;4.38;;
32734;SDS011;19112;51.076;3.706;2023-02-01T15:50:50;28.70;;;4.32;;
32734;SDS011;19112;51.076;3.706;2023-02-01T15:53:22;34.83;;;4.72;;
32734;SDS011;19112;51.076;3.706;2023-02-01T15:55:56;19.65;;;4.07;;
32734;SDS011;19112;51.076;3.706;2023-02-01T15:58:25;36.97;;;5.55;;
32734;SDS011;19112;51.076;3.706;2023-02-01T16:00:56;30.52;;;5.00;;
32734;SDS011;19112;51.076;3.706;2023-02-01T16:03:34;29.70;;;4.60;;
32734;SDS011;19112;51.076;3.706;2023-02-01T16:06:11;25.05;;;5.40;;
32734;SDS011;19112;51.076;3.706;2023-02-01T16:08:50;26.58;;;4.97;;
32734;SDS011;19112;51.076;3.706;2023-02-01T16:11:39;30.75;;;4.97;;
32734;SDS011;19112;51.076;3.706;2023-02-01T16:14:21;31.65;;;5.75;;
32734;SDS011;19112;51.076;3.706;2023-02-01T16:16:48;27.85;;;5.40;;
32734;SDS011;19112;51.076;3.706;2023-02-01T16:19:14;30.77;;;5.57;;
32734;SDS011;19112;51.076;3.706;2023-02-01T16:21:40;33.97;;;5.88;;
32734;SDS011;19112;51.076;3.706;2023-02-01T16:24:06;25.83;;;4.50;;
32734;SDS011;19112;51.076;3.706;2023-02-01T16:26:32;26.20;;;5.70;;
32734;SDS011;19112;51.076;3.706;2023-02-01T16:28:59;27.73;;;4.88;;
32734;SDS011;19112;51.076;3.706;2023-02-01T16:31:29;29.23;;;5.30;;
32734;SDS011;19112;51.076;3.706;2023-02-01T16:33:57;30.85;;;5.03;;
32734;SDS011;19112;51.076;3.706;2023-02-01T16:36:24;28.27;;;5.80;;
32734;SDS011;19112;51.076;3.706;2023-02-01T16:38:50;32.00;;;6.32;;
32734;SDS011;19112;51.076;3.706;2023-02-01T16:41:18;24.35;;;5.15;;
32734;SDS011;19112;51.076;3.706;2023-02-01T16:43:49;30.35;;;5.50;;
32734;SDS011;19112;51.076;3.706;2023-02-01T16:46:19;33.22;;;5.20;;
32734;SDS011;19112;51.076;3.706;2023-02-01T16:48:54;31.20;;;5.30;;
32734;SDS011;19112;51.076;3.706;2023-02-01T16:51:23;26.30;;;5.72;;
32734;SDS011;19112;51.076;3.706;2023-02-01T16:53:53;28.20;;;5.18;;
32734;SDS011;19112;51.076;3.706;2023-02-01T16:56:23;27.25;;;5.22;;
32734;SDS011;19112;51.076;3.706;2023-02-01T16:58:57;26.10;;;5.28;;
32734;SDS011;19112;51.076;3.706;2023-02-01T17:01:24;26.38;;;5.35;;
32734;SDS011;19112;51.076;3.706;2023-02-01T17:03:51;36.35;;;6.22;;
32734;SDS011;19112;51.076;3.706;2023-02-01T17:06:18;28.67;;;5.18;;
32734;SDS011;19112;51.076;3.706;2023-02-01T17:08:50;31.55;;;5.40;;
32734;SDS011;19112;51.076;3.706;2023-02-01T17:11:22;33.08;;;5.93;;
32734;SDS011;19112;51.076;3.706;2023-02-01T17:13:48;41.05;;;5.25;;
32734;SDS011;19112;51.076;3.706;2023-02-01T17:18:43;38.75;;;6.22;;
32734;SDS011;19112;51.076;3.706;2023-02-01T17:21:15;28.65;;;5.22;;
32734;SDS011;19112;51.076;3.706;2023-02-01T17:23:41;36.08;;;6.55;;
32734;SDS011;19112;51.076;3.706;2023-02-01T17:26:08;30.98;;;6.10;;
32734;SDS011;19112;51.076;3.706;2023-02-01T17:28:35;31.85;;;7.53;;
32734;SDS011;19112;51.076;3.706;2023-02-01T17:31:00;38.60;;;6.43;;